sensor_id;sensor_type;location;lat;lon;timestamp;P1;durP1;ratioP1;P2;durP2;ratioP2
73382;SDS011;61600;48.126;11.542;2024-01-06T00:01:10;7.40;;;4.05;;
73382;SDS011;61600;48.126;11.542;2024-01-06T00:03:37;8.35;;;4.70;;
73382;SDS011;61600;48.126;11.542;2024-01-06T00:06:03;8.07;;;4.53;;
73382;SDS011;61600;48.126;11.542;2024-01-06T00:08:29;11.48;;;5.15;;
73382;SDS011;61600;48.126;11.542;2024-01-06T00:10:54;11.00;;;5.68;;
73382;SDS011;61600;48.126;11.542;2024-01-06T00:13:20;10.60;;;5.43;;
73382;SDS011;61600;48.126;11.542;2024-01-06T00:15:46;9.55;;;4.97;;
73382;SDS011;61600;48.126;11.542;2024-01-06T00:18:12;9.30;;;5.15;;
73382;SDS011;61600;48.126;11.542;2024-01-06T00:20:38;7.93;;;4.53;;
73382;SDS011;61600;48.126;11.542;2024-01-06T00:23:04;9.23;;;5.00;;
73382;SDS011;61600;48.126;11.542;2024-01-06T00:25:30;10.00;;;4.78;;
73382;SDS011;61600;48.126;11.542;2024-01-06T00:27:55;8.57;;;4.75;;
73382;SDS011;61600;48.126;11.542;2024-01-06T00:30:21;9.70;;;5.00;;
73382;SDS011;61600;48.126;11.542;2024-01-06T00:32:46;10.07;;;5.65;;
73382;SDS011;61600;48.126;11.542;2024-01-06T00:35:12;11.27;;;4.95;;
73382;SDS011;61600;48.126;11.542;2024-01-06T00:37:38;9.00;;;5.18;;
73382;SDS011;61600;48.126;11.542;2024-01-06T00:40:03;10.02;;;5.35;;
73382;SDS011;61600;48.126;11.542;2024-01-06T00:42:29;9.90;;;5.43;;
73382;SDS011;61600;48.126;11.542;2024-01-06T00:44:56;8.90;;;4.65;;
73382;SDS011;61600;48.126;11.542;2024-01-06T00:47:22;10.82;;;5.05;;
73382;SDS011;61600;48.126;11.542;2024-01-06T00:49:49;5.82;;;3.50;;
73382;SDS011;61600;48.126;11.542;2024-01-06T00:52:15;7.15;;;3.97;;
73382;SDS011;61600;48.126;11.542;2024-01-06T00:54:41;8.90;;;3.65;;
73382;SDS011;61600;48.126;11.542;2024-01-06T00:57:08;6.72;;;3.63;;
73382;SDS011;61600;48.126;11.542;2024-01-06T00:59:33;6.65;;;3.13;;
73382;SDS011;61600;48.126;11.542;2024-01-06T01:01:59;6.97;;;2.75;;
73382;SDS011;61600;48.126;11.542;2024-01-06T01:04:24;5.25;;;2.58;;
73382;SDS011;61600;48.126;11.542;2024-01-06T01:06:50;4.55;;;2.10;;
73382;SDS011;61600;48.126;11.542;2024-01-06T01:09:15;5.15;;;1.88;;
73382;SDS011;61600;48.126;11.542;2024-01-06T01:11:41;2.88;;;1.63;;
73382;SDS011;61600;48.126;11.542;2024-01-06T01:14:07;3.03;;;1.75;;
73382;SDS011;61600;48.126;11.542;2024-01-06T01:16:32;3.80;;;1.70;;
73382;SDS011;61600;48.126;11.542;2024-01-06T01:18:58;4.65;;;1.85;;
73382;SDS011;61600;48.126;11.542;2024-01-06T01:21:24;6.15;;;1.75;;
73382;SDS011;61600;48.126;11.542;2024-01-06T01:23:49;3.03;;;1.52;;
73382;SDS011;61600;48.126;11.542;2024-01-06T01:26:15;4.10;;;1.73;;
73382;SDS011;61600;48.126;11.542;2024-01-06T01:28:40;2.97;;;1.40;;
73382;SDS011;61600;48.126;11.542;2024-01-06T01:31:06;3.85;;;1.30;;
73382;SDS011;61600;48.126;11.542;2024-01-06T01:33:32;3.80;;;1.40;;
73382;SDS011;61600;48.126;11.542;2024-01-06T01:35:57;2.65;;;1.10;;
73382;SDS011;61600;48.126;11.542;2024-01-06T01:38:23;2.42;;;1.30;;
73382;SDS011;61600;48.126;11.542;2024-01-06T01:40:48;3.22;;;1.33;;
73382;SDS011;61600;48.126;11.542;2024-01-06T01:43:17;3.22;;;1.05;;
73382;SDS011;61600;48.126;11.542;2024-01-06T01:45:43;2.08;;;0.80;;
73382;SDS011;61600;48.126;11.542;2024-01-06T01:48:13;2.13;;;0.82;;
73382;SDS011;61600;48.126;11.542;2024-01-06T01:50:39;1.45;;;0.85;;
73382;SDS011;61600;48.126;11.542;2024-01-06T01:53:05;1.90;;;0.70;;
73382;SDS011;61600;48.126;11.542;2024-01-06T01:55:31;1.88;;;0.85;;
73382;SDS011;61600;48.126;11.542;2024-01-06T01:57:56;1.42;;;0.60;;
73382;SDS011;61600;48.126;11.542;2024-01-06T02:00:22;2.10;;;0.80;;
73382;SDS011;61600;48.126;11.542;2024-01-06T02:02:48;1.67;;;0.63;;
73382;SDS011;61600;48.126;11.542;2024-01-06T02:05:14;0.82;;;0.52;;
73382;SDS011;61600;48.126;11.542;2024-01-06T02:07:39;1.98;;;0.70;;
73382;SDS011;61600;48.126;11.542;2024-01-06T02:10:07;1.83;;;0.70;;
73382;SDS011;61600;48.126;11.542;2024-01-06T02:12:33;1.27;;;0.80;;
73382;SDS011;61600;48.126;11.542;2024-01-06T02:14:58;2.80;;;1.00;;
73382;SDS011;61600;48.126;11.542;2024-01-06T02:17:24;2.35;;;1.08;;
73382;SDS011;61600;48.126;11.542;2024-01-06T02:19:50;2.15;;;1.10;;
73382;SDS011;61600;48.126;11.542;2024-01-06T02:22:16;3.45;;;1.00;;
73382;SDS011;61600;48.126;11.542;2024-01-06T02:24:43;1.85;;;1.10;;
73382;SDS011;61600;48.126;11.542;2024-01-06T02:27:09;4.20;;;1.20;;
73382;SDS011;61600;48.126;11.542;2024-01-06T02:29:34;2.10;;;1.15;;
73382;SDS011;61600;48.126;11.542;2024-01-06T02:32:00;2.22;;;1.00;;
73382;SDS011;61600;48.126;11.542;2024-01-06T02:34:25;2.88;;;1.45;;
73382;SDS011;61600;48.126;11.542;2024-01-06T02:36:51;3.05;;;1.30;;
73382;SDS011;61600;48.126;11.542;2024-01-06T02:39:17;2.25;;;1.10;;
73382;SDS011;61600;48.126;11.542;2024-01-06T02:41:43;1.83;;;0.95;;
73382;SDS011;61600;48.126;11.542;2024-01-06T02:44:08;2.67;;;1.25;;
73382;SDS011;61600;48.126;11.542;2024-01-06T02:46:34;4.25;;;1.50;;
73382;SDS011;61600;48.126;11.542;2024-01-06T02:49:00;3.47;;;1.58;;
73382;SDS011;61600;48.126;11.542;2024-01-06T02:51:25;2.63;;;1.40;;
73382;SDS011;61600;48.126;11.542;2024-01-06T02:53:51;2.85;;;1.23;;
73382;SDS011;61600;48.126;11.542;2024-01-06T02:56:16;2.05;;;1.25;;
73382;SDS011;61600;48.126;11.542;2024-01-06T02:58:42;2.58;;;1.20;;
73382;SDS011;61600;48.126;11.542;2024-01-06T03:01:07;3.00;;;1.40;;
73382;SDS011;61600;48.126;11.542;2024-01-06T03:03:33;3.47;;;1.73;;
73382;SDS011;61600;48.126;11.542;2024-01-06T03:05:58;2.22;;;1.15;;
73382;SDS011;61600;48.126;11.542;2024-01-06T03:08:25;3.42;;;1.33;;
73382;SDS011;61600;48.126;11.542;2024-01-06T03:10:50;2.33;;;1.10;;
73382;SDS011;61600;48.126;11.542;2024-01-06T03:13:16;1.88;;;0.95;;
73382;SDS011;61600;48.126;11.542;2024-01-06T03:15:42;4.88;;;1.48;;
73382;SDS011;61600;48.126;11.542;2024-01-06T03:18:07;2.58;;;1.00;;
73382;SDS011;61600;48.126;11.542;2024-01-06T03:20:35;1.58;;;0.93;;
73382;SDS011;61600;48.126;11.542;2024-01-06T03:23:00;4.25;;;1.63;;
73382;SDS011;61600;48.126;11.542;2024-01-06T03:25:26;3.22;;;1.70;;
73382;SDS011;61600;48.126;11.542;2024-01-06T03:27:52;4.65;;;2.38;;
73382;SDS011;61600;48.126;11.542;2024-01-06T03:30:17;3.88;;;2.28;;
73382;SDS011;61600;48.126;11.542;2024-01-06T03:32:43;4.15;;;1.92;;
73382;SDS011;61600;48.126;11.542;2024-01-06T03:35:08;4.35;;;2.00;;
73382;SDS011;61600;48.126;11.542;2024-01-06T03:37:34;5.25;;;2.45;;
73382;SDS011;61600;48.126;11.542;2024-01-06T03:40:00;4.35;;;2.20;;
73382;SDS011;61600;48.126;11.542;2024-01-06T03:42:25;4.57;;;2.28;;
73382;SDS011;61600;48.126;11.542;2024-01-06T03:44:51;5.53;;;2.22;;
73382;SDS011;61600;48.126;11.542;2024-01-06T03:47:16;5.05;;;1.75;;
73382;SDS011;61600;48.126;11.542;2024-01-06T03:49:43;2.70;;;1.45;;
73382;SDS011;61600;48.126;11.542;2024-01-06T03:52:08;4.03;;;1.55;;
73382;SDS011;61600;48.126;11.542;2024-01-06T03:54:34;2.90;;;1.38;;
73382;SDS011;61600;48.126;11.542;2024-01-06T03:56:59;3.42;;;1.80;;
73382;SDS011;61600;48.126;11.542;2024-01-06T03:59:25;4.15;;;1.98;;
73382;SDS011;61600;48.126;11.542;2024-01-06T04:01:50;4.45;;;1.80;;
73382;SDS011;61600;48.126;11.542;2024-01-06T04:04:16;4.35;;;1.85;;
73382;SDS011;61600;48.126;11.542;2024-01-06T04:06:42;5.55;;;2.28;;
73382;SDS011;61600;48.126;11.542;2024-01-06T04:09:07;5.15;;;2.33;;
73382;SDS011;61600;48.126;11.542;2024-01-06T04:11:34;6.55;;;2.22;;
73382;SDS011;61600;48.126;11.542;2024-01-06T04:14:00;4.22;;;2.10;;
73382;SDS011;61600;48.126;11.542;2024-01-06T04:16:26;5.65;;;2.22;;
73382;SDS011;61600;48.126;11.542;2024-01-06T04:18:52;5.10;;;1.95;;
73382;SDS011;61600;48.126;11.542;2024-01-06T04:21:18;3.33;;;1.48;;
73382;SDS011;61600;48.126;11.542;2024-01-06T04:23:43;2.55;;;1.27;;
73382;SDS011;61600;48.126;11.542;2024-01-06T04:26:09;2.53;;;1.38;;
73382;SDS011;61600;48.126;11.542;2024-01-06T04:28:35;2.70;;;1.00;;
73382;SDS011;61600;48.126;11.542;2024-01-06T04:31:00;3.35;;;1.55;;
73382;SDS011;61600;48.126;11.542;2024-01-06T04:33:27;2.08;;;1.00;;
73382;SDS011;61600;48.126;11.542;2024-01-06T04:35:52;1.95;;;0.82;;
73382;SDS011;61600;48.126;11.542;2024-01-06T04:38:18;1.52;;;0.80;;
73382;SDS011;61600;48.126;11.542;2024-01-06T04:40:43;1.75;;;0.80;;
73382;SDS011;61600;48.126;11.542;2024-01-06T04:43:09;1.45;;;0.60;;
73382;SDS011;61600;48.126;11.542;2024-01-06T04:45:34;1.40;;;0.70;;
73382;SDS011;61600;48.126;11.542;2024-01-06T04:48:04;1.15;;;0.88;;
73382;SDS011;61600;48.126;11.542;2024-01-06T04:52:56;0.88;;;0.40;;
73382;SDS011;61600;48.126;11.542;2024-01-06T04:55:22;0.65;;;0.40;;
73382;SDS011;61600;48.126;11.542;2024-01-06T04:57:50;0.85;;;0.65;;
73382;SDS011;61600;48.126;11.542;2024-01-06T05:00:16;2.17;;;0.57;;
73382;SDS011;61600;48.126;11.542;2024-01-06T05:02:43;1.02;;;0.47;;
73382;SDS011;61600;48.126;11.542;2024-01-06T05:05:08;0.90;;;0.40;;
73382;SDS011;61600;48.126;11.542;2024-01-06T05:07:34;0.98;;;0.50;;
73382;SDS011;61600;48.126;11.542;2024-01-06T05:10:00;0.30;;;0.30;;
73382;SDS011;61600;48.126;11.542;2024-01-06T05:12:26;0.75;;;0.47;;
73382;SDS011;61600;48.126;11.542;2024-01-06T05:14:51;0.70;;;0.40;;
73382;SDS011;61600;48.126;11.542;2024-01-06T05:17:17;0.73;;;0.38;;
73382;SDS011;61600;48.126;11.542;2024-01-06T05:19:42;0.45;;;0.25;;
73382;SDS011;61600;48.126;11.542;2024-01-06T05:22:08;0.73;;;0.30;;
73382;SDS011;61600;48.126;11.542;2024-01-06T05:24:33;0.50;;;0.30;;
73382;SDS011;61600;48.126;11.542;2024-01-06T05:26:59;0.43;;;0.32;;
73382;SDS011;61600;48.126;11.542;2024-01-06T05:29:24;0.30;;;0.30;;
73382;SDS011;61600;48.126;11.542;2024-01-06T05:31:51;0.65;;;0.43;;
73382;SDS011;61600;48.126;11.542;2024-01-06T05:34:17;0.63;;;0.47;;
73382;SDS011;61600;48.126;11.542;2024-01-06T05:36:42;0.63;;;0.50;;
73382;SDS011;61600;48.126;11.542;2024-01-06T05:39:08;1.10;;;0.43;;
73382;SDS011;61600;48.126;11.542;2024-01-06T05:41:37;1.42;;;0.57;;
73382;SDS011;61600;48.126;11.542;2024-01-06T05:44:04;0.60;;;0.40;;
73382;SDS011;61600;48.126;11.542;2024-01-06T05:46:30;1.23;;;0.60;;
73382;SDS011;61600;48.126;11.542;2024-01-06T05:48:55;1.73;;;0.40;;
73382;SDS011;61600;48.126;11.542;2024-01-06T05:51:21;1.25;;;0.52;;
73382;SDS011;61600;48.126;11.542;2024-01-06T05:53:47;1.63;;;0.70;;
73382;SDS011;61600;48.126;11.542;2024-01-06T05:56:25;1.55;;;0.70;;
73382;SDS011;61600;48.126;11.542;2024-01-06T05:58:52;0.90;;;0.75;;
73382;SDS011;61600;48.126;11.542;2024-01-06T06:01:18;1.27;;;0.80;;
73382;SDS011;61600;48.126;11.542;2024-01-06T06:03:45;1.98;;;1.17;;
73382;SDS011;61600;48.126;11.542;2024-01-06T06:06:15;4.63;;;1.23;;
73382;SDS011;61600;48.126;11.542;2024-01-06T06:08:41;3.65;;;1.20;;
73382;SDS011;61600;48.126;11.542;2024-01-06T06:11:07;4.05;;;1.70;;
73382;SDS011;61600;48.126;11.542;2024-01-06T06:13:42;4.03;;;1.20;;
73382;SDS011;61600;48.126;11.542;2024-01-06T06:16:11;1.45;;;0.90;;
73382;SDS011;61600;48.126;11.542;2024-01-06T06:18:40;2.65;;;0.88;;
73382;SDS011;61600;48.126;11.542;2024-01-06T06:21:06;1.42;;;0.80;;
73382;SDS011;61600;48.126;11.542;2024-01-06T06:23:33;2.95;;;1.00;;
73382;SDS011;61600;48.126;11.542;2024-01-06T06:25:59;3.05;;;1.30;;
73382;SDS011;61600;48.126;11.542;2024-01-06T06:28:25;3.13;;;1.30;;
73382;SDS011;61600;48.126;11.542;2024-01-06T06:30:50;10.60;;;4.43;;
73382;SDS011;61600;48.126;11.542;2024-01-06T06:33:16;2.42;;;1.38;;
73382;SDS011;61600;48.126;11.542;2024-01-06T06:35:42;3.00;;;1.00;;
73382;SDS011;61600;48.126;11.542;2024-01-06T06:38:08;2.75;;;1.65;;
73382;SDS011;61600;48.126;11.542;2024-01-06T06:40:33;2.78;;;1.45;;
73382;SDS011;61600;48.126;11.542;2024-01-06T06:42:59;4.28;;;1.58;;
73382;SDS011;61600;48.126;11.542;2024-01-06T06:45:24;2.72;;;1.38;;
73382;SDS011;61600;48.126;11.542;2024-01-06T06:47:50;2.45;;;1.15;;
73382;SDS011;61600;48.126;11.542;2024-01-06T06:50:16;4.85;;;1.55;;
73382;SDS011;61600;48.126;11.542;2024-01-06T06:52:42;3.28;;;1.58;;
73382;SDS011;61600;48.126;11.542;2024-01-06T06:55:08;5.07;;;1.73;;
73382;SDS011;61600;48.126;11.542;2024-01-06T06:57:34;3.35;;;1.45;;
73382;SDS011;61600;48.126;11.542;2024-01-06T06:59:59;4.25;;;2.50;;
73382;SDS011;61600;48.126;11.542;2024-01-06T07:02:26;5.28;;;2.17;;
73382;SDS011;61600;48.126;11.542;2024-01-06T07:04:51;3.33;;;1.40;;
73382;SDS011;61600;48.126;11.542;2024-01-06T07:07:17;3.65;;;1.40;;
73382;SDS011;61600;48.126;11.542;2024-01-06T07:09:42;4.82;;;1.40;;
73382;SDS011;61600;48.126;11.542;2024-01-06T07:12:08;3.30;;;1.45;;
73382;SDS011;61600;48.126;11.542;2024-01-06T07:14:33;3.17;;;1.42;;
73382;SDS011;61600;48.126;11.542;2024-01-06T07:16:59;3.05;;;1.52;;
73382;SDS011;61600;48.126;11.542;2024-01-06T07:19:24;3.80;;;1.25;;
73382;SDS011;61600;48.126;11.542;2024-01-06T07:21:50;5.57;;;1.60;;
73382;SDS011;61600;48.126;11.542;2024-01-06T07:24:16;3.25;;;1.30;;
73382;SDS011;61600;48.126;11.542;2024-01-06T07:26:41;2.97;;;1.38;;
73382;SDS011;61600;48.126;11.542;2024-01-06T07:29:07;4.93;;;1.70;;
73382;SDS011;61600;48.126;11.542;2024-01-06T07:31:33;7.55;;;3.15;;
73382;SDS011;61600;48.126;11.542;2024-01-06T07:33:59;2.65;;;1.35;;
73382;SDS011;61600;48.126;11.542;2024-01-06T07:36:25;3.15;;;1.90;;
73382;SDS011;61600;48.126;11.542;2024-01-06T07:38:50;6.32;;;1.75;;
73382;SDS011;61600;48.126;11.542;2024-01-06T07:41:17;3.55;;;1.95;;
73382;SDS011;61600;48.126;11.542;2024-01-06T07:43:43;5.30;;;2.78;;
73382;SDS011;61600;48.126;11.542;2024-01-06T07:46:09;4.20;;;1.90;;
73382;SDS011;61600;48.126;11.542;2024-01-06T07:48:35;5.25;;;2.30;;
73382;SDS011;61600;48.126;11.542;2024-01-06T07:51:01;4.75;;;2.03;;
73382;SDS011;61600;48.126;11.542;2024-01-06T07:53:28;3.85;;;1.90;;
73382;SDS011;61600;48.126;11.542;2024-01-06T07:55:55;5.35;;;2.10;;
73382;SDS011;61600;48.126;11.542;2024-01-06T07:58:21;5.85;;;2.03;;
73382;SDS011;61600;48.126;11.542;2024-01-06T08:00:47;3.53;;;2.00;;
73382;SDS011;61600;48.126;11.542;2024-01-06T08:03:13;4.47;;;2.15;;
73382;SDS011;61600;48.126;11.542;2024-01-06T08:05:38;4.65;;;2.30;;
73382;SDS011;61600;48.126;11.542;2024-01-06T08:08:05;4.82;;;2.50;;
73382;SDS011;61600;48.126;11.542;2024-01-06T08:10:31;4.50;;;2.00;;
73382;SDS011;61600;48.126;11.542;2024-01-06T08:12:57;3.25;;;1.77;;
73382;SDS011;61600;48.126;11.542;2024-01-06T08:15:24;4.97;;;2.30;;
73382;SDS011;61600;48.126;11.542;2024-01-06T08:17:49;4.32;;;2.00;;
73382;SDS011;61600;48.126;11.542;2024-01-06T08:20:15;5.15;;;2.55;;
73382;SDS011;61600;48.126;11.542;2024-01-06T08:22:41;9.25;;;3.72;;
73382;SDS011;61600;48.126;11.542;2024-01-06T08:25:06;3.65;;;1.60;;
73382;SDS011;61600;48.126;11.542;2024-01-06T08:27:32;4.07;;;1.45;;
73382;SDS011;61600;48.126;11.542;2024-01-06T08:29:58;4.28;;;1.67;;
73382;SDS011;61600;48.126;11.542;2024-01-06T08:32:24;3.15;;;1.73;;
73382;SDS011;61600;48.126;11.542;2024-01-06T08:34:49;4.30;;;1.98;;
73382;SDS011;61600;48.126;11.542;2024-01-06T08:37:15;3.60;;;1.60;;
73382;SDS011;61600;48.126;11.542;2024-01-06T08:39:41;5.00;;;1.90;;
73382;SDS011;61600;48.126;11.542;2024-01-06T08:42:07;2.80;;;1.35;;
73382;SDS011;61600;48.126;11.542;2024-01-06T08:44:32;4.32;;;1.60;;
73382;SDS011;61600;48.126;11.542;2024-01-06T08:46:58;3.63;;;2.03;;
73382;SDS011;61600;48.126;11.542;2024-01-06T08:49:23;5.60;;;1.80;;
73382;SDS011;61600;48.126;11.542;2024-01-06T08:51:49;5.53;;;1.50;;
73382;SDS011;61600;48.126;11.542;2024-01-06T08:54:15;3.55;;;1.55;;
73382;SDS011;61600;48.126;11.542;2024-01-06T08:56:41;4.38;;;1.48;;
73382;SDS011;61600;48.126;11.542;2024-01-06T08:59:06;3.25;;;1.58;;
73382;SDS011;61600;48.126;11.542;2024-01-06T09:01:32;3.80;;;1.30;;
73382;SDS011;61600;48.126;11.542;2024-01-06T09:03:59;2.55;;;1.40;;
73382;SDS011;61600;48.126;11.542;2024-01-06T09:06:25;5.15;;;1.77;;
73382;SDS011;61600;48.126;11.542;2024-01-06T09:08:50;4.40;;;1.33;;
73382;SDS011;61600;48.126;11.542;2024-01-06T09:11:16;4.68;;;1.73;;
73382;SDS011;61600;48.126;11.542;2024-01-06T09:13:42;2.85;;;1.75;;
73382;SDS011;61600;48.126;11.542;2024-01-06T09:16:07;6.72;;;1.85;;
73382;SDS011;61600;48.126;11.542;2024-01-06T09:18:33;4.53;;;1.48;;
73382;SDS011;61600;48.126;11.542;2024-01-06T09:20:58;5.50;;;1.95;;
73382;SDS011;61600;48.126;11.542;2024-01-06T09:23:24;5.07;;;1.75;;
73382;SDS011;61600;48.126;11.542;2024-01-06T09:25:50;5.25;;;1.98;;
73382;SDS011;61600;48.126;11.542;2024-01-06T09:28:17;4.25;;;1.70;;
73382;SDS011;61600;48.126;11.542;2024-01-06T09:30:43;3.20;;;1.60;;
73382;SDS011;61600;48.126;11.542;2024-01-06T09:33:08;3.33;;;1.80;;
73382;SDS011;61600;48.126;11.542;2024-01-06T09:35:34;5.38;;;2.03;;
73382;SDS011;61600;48.126;11.542;2024-01-06T09:38:00;7.50;;;2.50;;
73382;SDS011;61600;48.126;11.542;2024-01-06T09:40:25;4.35;;;2.22;;
73382;SDS011;61600;48.126;11.542;2024-01-06T09:42:51;4.95;;;2.28;;
73382;SDS011;61600;48.126;11.542;2024-01-06T09:45:18;5.97;;;2.03;;
73382;SDS011;61600;48.126;11.542;2024-01-06T09:47:50;6.70;;;2.60;;
73382;SDS011;61600;48.126;11.542;2024-01-06T09:50:19;4.93;;;2.03;;
73382;SDS011;61600;48.126;11.542;2024-01-06T09:52:46;4.93;;;1.80;;
73382;SDS011;61600;48.126;11.542;2024-01-06T09:55:22;4.57;;;1.70;;
73382;SDS011;61600;48.126;11.542;2024-01-06T09:57:53;5.45;;;1.92;;
73382;SDS011;61600;48.126;11.542;2024-01-06T10:00:19;5.93;;;1.80;;
73382;SDS011;61600;48.126;11.542;2024-01-06T10:02:46;5.90;;;1.98;;
73382;SDS011;61600;48.126;11.542;2024-01-06T10:05:15;3.00;;;1.52;;
73382;SDS011;61600;48.126;11.542;2024-01-06T10:07:43;4.45;;;1.98;;
73382;SDS011;61600;48.126;11.542;2024-01-06T10:10:12;7.93;;;2.13;;
73382;SDS011;61600;48.126;11.542;2024-01-06T10:12:39;7.00;;;2.55;;
73382;SDS011;61600;48.126;11.542;2024-01-06T10:15:06;8.27;;;2.00;;
73382;SDS011;61600;48.126;11.542;2024-01-06T10:17:36;5.70;;;2.13;;
73382;SDS011;61600;48.126;11.542;2024-01-06T10:20:11;5.80;;;2.60;;
73382;SDS011;61600;48.126;11.542;2024-01-06T10:22:43;5.38;;;2.25;;
73382;SDS011;61600;48.126;11.542;2024-01-06T10:25:10;4.57;;;2.28;;
73382;SDS011;61600;48.126;11.542;2024-01-06T10:27:39;6.28;;;2.67;;
73382;SDS011;61600;48.126;11.542;2024-01-06T10:30:07;3.92;;;2.08;;
73382;SDS011;61600;48.126;11.542;2024-01-06T10:32:33;6.13;;;2.70;;
73382;SDS011;61600;48.126;11.542;2024-01-06T10:35:01;4.65;;;2.78;;
73382;SDS011;61600;48.126;11.542;2024-01-06T10:37:28;6.15;;;2.55;;
73382;SDS011;61600;48.126;11.542;2024-01-06T10:42:51;8.05;;;2.53;;
73382;SDS011;61600;48.126;11.542;2024-01-06T10:45:17;8.05;;;3.20;;
73382;SDS011;61600;48.126;11.542;2024-01-06T10:47:43;5.90;;;2.72;;
73382;SDS011;61600;48.126;11.542;2024-01-06T10:50:09;7.68;;;3.33;;
73382;SDS011;61600;48.126;11.542;2024-01-06T10:52:36;6.63;;;3.15;;
73382;SDS011;61600;48.126;11.542;2024-01-06T10:55:04;6.65;;;2.58;;
73382;SDS011;61600;48.126;11.542;2024-01-06T10:57:31;4.47;;;2.42;;
73382;SDS011;61600;48.126;11.542;2024-01-06T11:00:00;5.97;;;1.80;;
73382;SDS011;61600;48.126;11.542;2024-01-06T11:02:26;15.70;;;5.82;;
73382;SDS011;61600;48.126;11.542;2024-01-06T11:04:52;8.27;;;2.95;;
73382;SDS011;61600;48.126;11.542;2024-01-06T11:07:19;7.93;;;2.70;;
73382;SDS011;61600;48.126;11.542;2024-01-06T11:10:08;4.65;;;2.20;;
73382;SDS011;61600;48.126;11.542;2024-01-06T11:12:42;6.60;;;2.75;;
73382;SDS011;61600;48.126;11.542;2024-01-06T11:15:08;5.70;;;2.90;;
73382;SDS011;61600;48.126;11.542;2024-01-06T11:17:48;5.95;;;2.40;;
73382;SDS011;61600;48.126;11.542;2024-01-06T11:20:23;9.10;;;2.75;;
73382;SDS011;61600;48.126;11.542;2024-01-06T11:22:50;6.22;;;2.85;;
73382;SDS011;61600;48.126;11.542;2024-01-06T11:25:21;6.47;;;2.70;;
73382;SDS011;61600;48.126;11.542;2024-01-06T11:27:49;8.32;;;3.05;;
73382;SDS011;61600;48.126;11.542;2024-01-06T11:30:30;11.27;;;3.20;;
73382;SDS011;61600;48.126;11.542;2024-01-06T11:32:58;8.43;;;3.00;;
73382;SDS011;61600;48.126;11.542;2024-01-06T11:35:26;8.70;;;2.80;;
73382;SDS011;61600;48.126;11.542;2024-01-06T11:37:53;7.85;;;3.20;;
73382;SDS011;61600;48.126;11.542;2024-01-06T11:40:25;5.90;;;2.85;;
73382;SDS011;61600;48.126;11.542;2024-01-06T11:42:59;6.43;;;2.95;;
73382;SDS011;61600;48.126;11.542;2024-01-06T11:45:33;8.68;;;2.85;;
73382;SDS011;61600;48.126;11.542;2024-01-06T11:48:00;6.47;;;3.05;;
73382;SDS011;61600;48.126;11.542;2024-01-06T11:50:32;7.70;;;3.10;;
73382;SDS011;61600;48.126;11.542;2024-01-06T11:52:59;9.55;;;3.60;;
73382;SDS011;61600;48.126;11.542;2024-01-06T11:55:26;8.32;;;2.97;;
73382;SDS011;61600;48.126;11.542;2024-01-06T11:57:57;5.85;;;3.35;;
73382;SDS011;61600;48.126;11.542;2024-01-06T12:00:27;8.35;;;3.40;;
73382;SDS011;61600;48.126;11.542;2024-01-06T12:02:56;9.48;;;3.30;;
73382;SDS011;61600;48.126;11.542;2024-01-06T12:05:23;8.00;;;3.55;;
73382;SDS011;61600;48.126;11.542;2024-01-06T12:07:56;9.73;;;3.60;;
73382;SDS011;61600;48.126;11.542;2024-01-06T12:10:23;7.30;;;3.25;;
73382;SDS011;61600;48.126;11.542;2024-01-06T12:13:03;7.22;;;3.55;;
73382;SDS011;61600;48.126;11.542;2024-01-06T12:15:31;5.88;;;3.60;;
73382;SDS011;61600;48.126;11.542;2024-01-06T12:17:57;5.97;;;3.50;;
73382;SDS011;61600;48.126;11.542;2024-01-06T12:20:24;9.60;;;3.45;;
73382;SDS011;61600;48.126;11.542;2024-01-06T12:25:17;6.35;;;2.90;;
73382;SDS011;61600;48.126;11.542;2024-01-06T12:27:43;7.47;;;3.63;;
73382;SDS011;61600;48.126;11.542;2024-01-06T12:30:15;7.88;;;3.03;;
73382;SDS011;61600;48.126;11.542;2024-01-06T12:32:46;9.27;;;3.67;;
73382;SDS011;61600;48.126;11.542;2024-01-06T12:35:12;5.95;;;3.50;;
73382;SDS011;61600;48.126;11.542;2024-01-06T12:37:39;7.90;;;3.60;;
73382;SDS011;61600;48.126;11.542;2024-01-06T12:40:08;12.13;;;4.45;;
73382;SDS011;61600;48.126;11.542;2024-01-06T12:42:34;7.20;;;3.78;;
73382;SDS011;61600;48.126;11.542;2024-01-06T12:44:59;6.00;;;3.35;;
73382;SDS011;61600;48.126;11.542;2024-01-06T12:47:26;8.05;;;3.13;;
73382;SDS011;61600;48.126;11.542;2024-01-06T12:49:52;6.80;;;3.20;;
73382;SDS011;61600;48.126;11.542;2024-01-06T12:52:17;6.78;;;3.00;;
73382;SDS011;61600;48.126;11.542;2024-01-06T12:54:43;6.40;;;3.45;;
73382;SDS011;61600;48.126;11.542;2024-01-06T12:57:08;9.02;;;3.13;;
73382;SDS011;61600;48.126;11.542;2024-01-06T12:59:34;7.05;;;2.90;;
73382;SDS011;61600;48.126;11.542;2024-01-06T13:02:00;7.00;;;3.40;;
73382;SDS011;61600;48.126;11.542;2024-01-06T13:04:26;5.68;;;2.90;;
73382;SDS011;61600;48.126;11.542;2024-01-06T13:06:52;6.13;;;3.47;;
73382;SDS011;61600;48.126;11.542;2024-01-06T13:09:18;7.18;;;2.88;;
73382;SDS011;61600;48.126;11.542;2024-01-06T13:11:43;5.75;;;2.72;;
73382;SDS011;61600;48.126;11.542;2024-01-06T13:14:11;4.13;;;2.10;;
73382;SDS011;61600;48.126;11.542;2024-01-06T13:16:38;5.03;;;2.30;;
73382;SDS011;61600;48.126;11.542;2024-01-06T13:19:03;7.88;;;3.17;;
73382;SDS011;61600;48.126;11.542;2024-01-06T13:21:29;9.38;;;2.60;;
73382;SDS011;61600;48.126;11.542;2024-01-06T13:23:55;4.30;;;2.13;;
73382;SDS011;61600;48.126;11.542;2024-01-06T13:26:26;6.70;;;2.33;;
73382;SDS011;61600;48.126;11.542;2024-01-06T13:28:53;7.72;;;2.58;;
73382;SDS011;61600;48.126;11.542;2024-01-06T13:31:19;4.45;;;2.40;;
73382;SDS011;61600;48.126;11.542;2024-01-06T13:33:45;5.60;;;2.40;;
73382;SDS011;61600;48.126;11.542;2024-01-06T13:36:11;4.95;;;2.33;;
73382;SDS011;61600;48.126;11.542;2024-01-06T13:38:37;7.40;;;2.58;;
73382;SDS011;61600;48.126;11.542;2024-01-06T13:41:03;6.93;;;2.45;;
73382;SDS011;61600;48.126;11.542;2024-01-06T13:43:29;6.97;;;2.75;;
73382;SDS011;61600;48.126;11.542;2024-01-06T13:45:57;5.03;;;2.42;;
73382;SDS011;61600;48.126;11.542;2024-01-06T13:48:23;9.00;;;2.95;;
73382;SDS011;61600;48.126;11.542;2024-01-06T13:50:49;6.63;;;2.67;;
73382;SDS011;61600;48.126;11.542;2024-01-06T13:53:15;4.45;;;2.60;;
73382;SDS011;61600;48.126;11.542;2024-01-06T13:55:41;7.38;;;2.70;;
73382;SDS011;61600;48.126;11.542;2024-01-06T13:58:06;7.07;;;2.95;;
73382;SDS011;61600;48.126;11.542;2024-01-06T14:00:34;5.85;;;2.83;;
73382;SDS011;61600;48.126;11.542;2024-01-06T14:03:01;7.55;;;2.80;;
73382;SDS011;61600;48.126;11.542;2024-01-06T14:05:28;9.07;;;3.08;;
73382;SDS011;61600;48.126;11.542;2024-01-06T14:07:54;6.85;;;3.25;;
73382;SDS011;61600;48.126;11.542;2024-01-06T14:10:20;8.07;;;2.78;;
73382;SDS011;61600;48.126;11.542;2024-01-06T14:12:46;5.32;;;2.88;;
73382;SDS011;61600;48.126;11.542;2024-01-06T14:15:12;8.35;;;3.00;;
73382;SDS011;61600;48.126;11.542;2024-01-06T14:17:37;5.63;;;2.78;;
73382;SDS011;61600;48.126;11.542;2024-01-06T14:20:04;6.03;;;2.60;;
73382;SDS011;61600;48.126;11.542;2024-01-06T14:22:30;6.20;;;2.67;;
73382;SDS011;61600;48.126;11.542;2024-01-06T14:24:56;9.45;;;3.00;;
73382;SDS011;61600;48.126;11.542;2024-01-06T14:27:21;8.80;;;3.33;;
73382;SDS011;61600;48.126;11.542;2024-01-06T14:29:48;7.07;;;3.83;;
73382;SDS011;61600;48.126;11.542;2024-01-06T14:32:14;5.20;;;3.17;;
73382;SDS011;61600;48.126;11.542;2024-01-06T14:34:39;6.53;;;3.10;;
73382;SDS011;61600;48.126;11.542;2024-01-06T14:37:07;8.88;;;3.47;;